Time;durP1;ratioP1;P1;durP2;ratioP2;P2;SDS_P1;SDS_P2;PMS_P1;PMS_P2;Temp;Humidity;BMP_temperature;BMP_pressure;BME280_temperature;BME280_humidity;BME280_pressure;Samples;Min_cycle;Max_cycle;Signal;HPM_P1;HPM_P2
2021/12/07 00:01:03;;;;;;;1.23;0.90;;;;;;;;;;5050059;28;20086;-71
2021/12/07 00:03:29;;;;;;;0.95;0.90;;;;;;;;;;5037328;28;20546;-72
2021/12/07 00:05:55;;;;;;;0.63;0.63;;;;;;;;;;5037484;28;20029;-71
2021/12/07 00:08:21;;;;;;;1.27;1.15;;;;;;;;;;5030715;28;20061;-71
2021/12/07 00:10:50;;;;;;;0.98;0.77;;;;;;;;;;5042231;28;20044;-72
2021/12/07 00:13:15;;;;;;;0.98;0.98;;;;;;;;;;5049468;28;20025;-71
2021/12/07 00:15:41;;;;;;;0.52;0.52;;;;;;;;;;5046384;28;20025;-72
2021/12/07 00:18:07;;;;;;;1.60;0.85;;;;;;;;;;5030058;28;20048;-71
2021/12/07 00:20:33;;;;;;;0.30;0.30;;;;;;;;;;5030768;28;20041;-71
2021/12/07 00:23:01;;;;;;;1.88;1.42;;;;;;;;;;5029210;28;20102;-72
2021/12/07 00:25:27;;;;;;;1.73;1.05;;;;;;;;;;5035558;28;20032;-72
2021/12/07 00:27:52;;;;;;;0.43;0.43;;;;;;;;;;5052936;28;20539;-71
2021/12/07 00:30:19;;;;;;;1.42;0.95;;;;;;;;;;5045316;28;20108;-72
2021/12/07 00:32:52;;;;;;;4.30;2.60;;;;;;;;;;5039280;28;20022;-72
2021/12/07 00:37:46;;;;;;;1.10;1.05;;;;;;;;;;5041482;28;20040;-71
2021/12/07 00:40:13;;;;;;;2.25;1.92;;;;;;;;;;5035997;28;20500;-72
2021/12/07 00:42:39;;;;;;;0.52;0.47;;;;;;;;;;5041256;28;20544;-71
2021/12/07 00:45:08;;;;;;;0.25;0.25;;;;;;;;;;5038337;28;20034;-73
2021/12/07 00:47:34;;;;;;;0.13;0.13;;;;;;;;;;5030032;28;20026;-71
2021/12/07 00:50:00;;;;;;;0.25;0.25;;;;;;;;;;5034400;28;20041;-72
2021/12/07 00:52:26;;;;;;;0.70;0.70;;;;;;;;;;5048872;28;20400;-72
2021/12/07 00:54:52;;;;;;;0.98;0.98;;;;;;;;;;5047965;28;20029;-72
2021/12/07 00:57:20;;;;;;;0.52;0.52;;;;;;;;;;5042741;28;20086;-72
2021/12/07 00:59:46;;;;;;;0.43;0.43;;;;;;;;;;5029227;28;20053;-72
2021/12/07 01:02:12;;;;;;;0.45;0.45;;;;;;;;;;5044278;28;20721;-72
2021/12/07 01:04:38;;;;;;;2.10;0.65;;;;;;;;;;5051557;28;20079;-72
2021/12/07 01:07:11;;;;;;;2.10;1.00;;;;;;;;;;5034719;28;20041;-72
2021/12/07 01:24:40;;;;;;;0.68;0.68;;;;;;;;;;5029361;28;20036;-72
2021/12/07 01:26:12;;;;;;;0.17;0.17;;;;;;;;;;5036485;28;20035;-72
2021/12/07 01:28:42;;;;;;;1.50;1.42;;;;;;;;;;5043295;28;20113;-71
2021/12/07 01:31:25;;;;;;;0.95;0.95;;;;;;;;;;5041303;28;20028;-72
2021/12/07 01:34:19;;;;;;;0.25;0.25;;;;;;;;;;5037871;28;20061;-71
2021/12/07 01:37:13;;;;;;;0.52;0.52;;;;;;;;;;5030883;28;20472;-72
2021/12/07 01:48:10;;;;;;;0.95;0.93;;;;;;;;;;5029303;28;20040;-71
2021/12/07 01:50:51;;;;;;;7.75;1.48;;;;;;;;;;5045564;28;20116;-71
2021/12/07 02:01:33;;;;;;;0.57;0.57;;;;;;;;;;5034633;28;20039;-72
2021/12/07 02:03:59;;;;;;;1.58;1.33;;;;;;;;;;5036090;28;20073;-72
2021/12/07 02:06:25;;;;;;;1.85;1.10;;;;;;;;;;5034302;28;20030;-71
2021/12/07 02:08:51;;;;;;;0.38;0.38;;;;;;;;;;5049345;28;20029;-72
2021/12/07 02:11:17;;;;;;;1.17;0.93;;;;;;;;;;5035177;28;20036;-72
2021/12/07 02:16:10;;;;;;;0.40;0.40;;;;;;;;;;5047241;28;20036;-72
2021/12/07 02:18:37;;;;;;;2.17;1.98;;;;;;;;;;5046992;28;20479;-72
2021/12/07 02:21:16;;;;;;;0.40;0.40;;;;;;;;;;5042462;28;20559;-72
2021/12/07 02:23:42;;;;;;;0.30;0.30;;;;;;;;;;5030408;28;20132;-72
2021/12/07 02:26:08;;;;;;;0.73;0.63;;;;;;;;;;5033028;28;20025;-72
2021/12/07 02:28:38;;;;;;;0.40;0.40;;;;;;;;;;5044788;28;20127;-72
2021/12/07 02:31:04;;;;;;;2.45;2.00;;;;;;;;;;5037643;28;20120;-71
2021/12/07 02:33:31;;;;;;;0.20;0.20;;;;;;;;;;5031963;28;20477;-72
2021/12/07 02:35:57;;;;;;;0.40;0.40;;;;;;;;;;5030072;28;20026;-71
2021/12/07 02:38:23;;;;;;;3.50;2.22;;;;;;;;;;5028572;28;20538;-71
2021/12/07 02:40:49;;;;;;;0.82;0.80;;;;;;;;;;5028883;28;20034;-72
2021/12/07 02:43:15;;;;;;;0.57;0.57;;;;;;;;;;5033315;28;20033;-72
2021/12/07 02:45:41;;;;;;;0.93;0.93;;;;;;;;;;5048045;28;20041;-71
2021/12/07 02:48:07;;;;;;;0.63;0.63;;;;;;;;;;5051843;28;20033;-72
2021/12/07 02:50:33;;;;;;;1.55;1.30;;;;;;;;;;5053259;28;20031;-72
2021/12/07 02:53:00;;;;;;;0.75;0.47;;;;;;;;;;5040050;28;20166;-72
2021/12/07 02:55:26;;;;;;;0.47;0.47;;;;;;;;;;5044685;28;20083;-72
2021/12/07 02:57:52;;;;;;;0.22;0.22;;;;;;;;;;5035122;28;20029;-72
2021/12/07 03:00:22;;;;;;;0.80;0.68;;;;;;;;;;5037065;28;20056;-72
2021/12/07 03:03:00;;;;;;;0.30;0.30;;;;;;;;;;5045846;28;20057;-72
2021/12/07 03:05:45;;;;;;;0.20;0.20;;;;;;;;;;5037270;28;20104;-72
2021/12/07 03:27:55;;;;;;;5.53;3.40;;;;;;;;;;5033917;28;20141;-72
2021/12/07 03:30:21;;;;;;;0.65;0.65;;;;;;;;;;5045075;28;20029;-71
2021/12/07 03:32:47;;;;;;;0.98;0.90;;;;;;;;;;5036057;28;20034;-72
2021/12/07 03:35:13;;;;;;;0.45;0.45;;;;;;;;;;5037937;28;20021;-72
2021/12/07 03:37:39;;;;;;;2.17;1.98;;;;;;;;;;5032108;28;20029;-72
2021/12/07 03:40:05;;;;;;;0.25;0.25;;;;;;;;;;5031394;28;20032;-72
2021/12/07 03:42:31;;;;;;;3.75;1.13;;;;;;;;;;5039082;28;20124;-72
2021/12/07 03:44:57;;;;;;;0.85;0.85;;;;;;;;;;5037743;28;20187;-71
2021/12/07 03:47:23;;;;;;;0.52;0.52;;;;;;;;;;5036300;28;20029;-71
2021/12/07 03:49:49;;;;;;;1.33;1.15;;;;;;;;;;5032168;28;20025;-71
2021/12/07 03:52:15;;;;;;;1.65;1.05;;;;;;;;;;5031483;28;20022;-72
2021/12/07 03:54:41;;;;;;;0.70;0.70;;;;;;;;;;5031084;28;20034;-72
2021/12/07 03:57:08;;;;;;;3.88;0.90;;;;;;;;;;5028218;28;20040;-71
2021/12/07 03:59:34;;;;;;;0.47;0.47;;;;;;;;;;5034626;28;20029;-71
2021/12/07 04:02:01;;;;;;;1.77;1.38;;;;;;;;;;5044738;28;20033;-71
2021/12/07 04:04:28;;;;;;;1.80;1.63;;;;;;;;;;5039372;28;20030;-72
2021/12/07 04:06:54;;;;;;;0.75;0.75;;;;;;;;;;5041153;28;20124;-72
2021/12/07 04:09:20;;;;;;;1.02;1.02;;;;;;;;;;5045894;28;20547;-72
2021/12/07 04:11:45;;;;;;;0.95;0.95;;;;;;;;;;5048540;28;20032;-72
2021/12/07 04:14:11;;;;;;;1.23;1.13;;;;;;;;;;5036329;28;20057;-71
2021/12/07 04:16:37;;;;;;;6.95;1.50;;;;;;;;;;5044442;28;20112;-71
2021/12/07 04:19:03;;;;;;;0.70;0.60;;;;;;;;;;5041755;28;20642;-71
2021/12/07 04:21:29;;;;;;;0.28;0.28;;;;;;;;;;5051639;28;20028;-71
2021/12/07 04:23:55;;;;;;;1.45;1.35;;;;;;;;;;5030123;28;20566;-72
2021/12/07 04:26:22;;;;;;;0.47;0.47;;;;;;;;;;5030415;28;20084;-72
2021/12/07 04:28:48;;;;;;;0.20;0.20;;;;;;;;;;5030700;28;20091;-72
2021/12/07 04:31:14;;;;;;;0.93;0.63;;;;;;;;;;5033679;28;20161;-71
2021/12/07 04:33:40;;;;;;;0.55;0.55;;;;;;;;;;5031219;28;20025;-72
2021/12/07 04:36:07;;;;;;;2.40;1.10;;;;;;;;;;5031616;28;20606;-72
2021/12/07 04:38:33;;;;;;;2.55;2.35;;;;;;;;;;5041756;28;20025;-71
2021/12/07 04:40:59;;;;;;;0.52;0.52;;;;;;;;;;5048073;28;20442;-72
2021/12/07 04:43:25;;;;;;;1.88;1.58;;;;;;;;;;5046137;28;20035;-71
2021/12/07 04:49:07;;;;;;;2.65;2.45;;;;;;;;;;5041293;28;20037;-72
2021/12/07 04:57:37;;;;;;;0.25;0.25;;;;;;;;;;5029848;28;20091;-71
2021/12/07 04:59:49;;;;;;;4.03;2.00;;;;;;;;;;5029762;28;20036;-71
2021/12/07 05:02:17;;;;;;;5.20;1.88;;;;;;;;;;5029657;28;20033;-72
2021/12/07 05:04:43;;;;;;;6.70;1.92;;;;;;;;;;5033810;28;20496;-71
2021/12/07 05:07:16;;;;;;;0.65;0.65;;;;;;;;;;5040058;28;20051;-71
2021/12/07 05:15:04;;;;;;;1.67;1.17;;;;;;;;;;5040048;28;20079;-72
2021/12/07 05:26:04;;;;;;;1.58;1.48;;;;;;;;;;5036343;28;20041;-72
2021/12/07 05:39:18;;;;;;;1.17;1.17;;;;;;;;;;5040057;28;20083;-71
2021/12/07 05:41:44;;;;;;;2.17;1.40;;;;;;;;;;5039598;28;20467;-71
2021/12/07 05:44:10;;;;;;;0.82;0.82;;;;;;;;;;5033246;28;20112;-73
2021/12/07 05:46:36;;;;;;;0.43;0.43;;;;;;;;;;5029577;28;20472;-72
2021/12/07 05:49:02;;;;;;;2.05;1.17;;;;;;;;;;5032843;28;20032;-72
2021/12/07 05:51:28;;;;;;;1.17;1.15;;;;;;;;;;5028986;28;20372;-71
2021/12/07 05:53:54;;;;;;;0.65;0.65;;;;;;;;;;5042492;28;20100;-71
2021/12/07 05:56:20;;;;;;;0.75;0.47;;;;;;;;;;5036893;28;20022;-71
2021/12/07 05:58:46;;;;;;;0.63;0.55;;;;;;;;;;5045427;28;20037;-73
2021/12/07 06:01:12;;;;;;;0.52;0.52;;;;;;;;;;5034903;28;20108;-73
2021/12/07 06:03:37;;;;;;;0.30;0.30;;;;;;;;;;5032690;28;20025;-72
2021/12/07 06:06:04;;;;;;;1.10;0.95;;;;;;;;;;5044346;28;20471;-72
2021/12/07 06:08:30;;;;;;;3.95;1.83;;;;;;;;;;5053049;28;20025;-72
2021/12/07 06:10:56;;;;;;;2.42;1.65;;;;;;;;;;5028235;28;20112;-72
2021/12/07 06:13:22;;;;;;;2.17;1.67;;;;;;;;;;5034531;28;20121;-72
2021/12/07 06:15:48;;;;;;;0.85;0.85;;;;;;;;;;5031739;28;20026;-71
2021/12/07 06:18:17;;;;;;;0.88;0.88;;;;;;;;;;5028542;28;20040;-71
2021/12/07 06:20:43;;;;;;;1.00;0.75;;;;;;;;;;5032145;28;20040;-71
2021/12/07 06:23:11;;;;;;;3.70;1.25;;;;;;;;;;5040132;28;20045;-72
2021/12/07 06:25:37;;;;;;;1.08;1.08;;;;;;;;;;5035309;28;20040;-71
2021/12/07 06:28:04;;;;;;;1.30;1.05;;;;;;;;;;5040402;28;20056;-72
2021/12/07 06:30:30;;;;;;;0.75;0.75;;;;;;;;;;5044497;28;20036;-71
2021/12/07 06:32:56;;;;;;;1.45;1.38;;;;;;;;;;5039432;28;20026;-71
2021/12/07 06:35:22;;;;;;;1.00;1.00;;;;;;;;;;5052042;28;20032;-72
2021/12/07 06:37:47;;;;;;;3.03;1.95;;;;;;;;;;5038843;28;20030;-71
2021/12/07 06:40:13;;;;;;;2.40;2.00;;;;;;;;;;5044048;28;20025;-72
2021/12/07 06:42:40;;;;;;;13.05;1.08;;;;;;;;;;5033245;28;20037;-71
2021/12/07 06:45:10;;;;;;;2.50;1.90;;;;;;;;;;5031797;28;20040;-72
2021/12/07 06:47:37;;;;;;;2.47;1.63;;;;;;;;;;5042044;28;20060;-72
2021/12/07 06:50:05;;;;;;;0.50;0.50;;;;;;;;;;5034636;28;20030;-72
2021/12/07 06:52:31;;;;;;;1.50;1.48;;;;;;;;;;5031804;28;20124;-72
2021/12/07 06:54:58;;;;;;;1.23;1.17;;;;;;;;;;5037513;28;20155;-71
2021/12/07 06:57:24;;;;;;;1.45;1.35;;;;;;;;;;5045394;28;20057;-71
2021/12/07 06:59:50;;;;;;;5.00;2.80;;;;;;;;;;5041489;28;20648;-71
2021/12/07 07:02:16;;;;;;;1.73;1.35;;;;;;;;;;5035539;28;20032;-71
2021/12/07 07:04:42;;;;;;;1.38;1.25;;;;;;;;;;5035276;28;20030;-71
2021/12/07 07:07:08;;;;;;;1.52;1.45;;;;;;;;;;5032439;28;20033;-72
2021/12/07 07:09:34;;;;;;;0.68;0.45;;;;;;;;;;5041183;28;20040;-72
2021/12/07 07:12:03;;;;;;;0.57;0.57;;;;;;;;;;5040310;28;20036;-70
2021/12/07 07:14:28;;;;;;;1.13;1.13;;;;;;;;;;5033394;28;20033;-70
2021/12/07 07:16:54;;;;;;;1.15;1.15;;;;;;;;;;5031398;28;20084;-71
2021/12/07 07:19:20;;;;;;;3.15;2.85;;;;;;;;;;5031101;28;20064;-71
2021/12/07 07:21:46;;;;;;;2.88;2.30;;;;;;;;;;5041944;28;20056;-70
2021/12/07 07:24:12;;;;;;;1.88;1.65;;;;;;;;;;5034622;28;20111;-71
2021/12/07 07:26:38;;;;;;;0.90;0.88;;;;;;;;;;5031565;28;20029;-71
2021/12/07 07:29:04;;;;;;;1.55;1.40;;;;;;;;;;5034038;28;20025;-70
2021/12/07 07:31:30;;;;;;;3.47;3.17;;;;;;;;;;5047086;28;20013;-70
2021/12/07 07:33:56;;;;;;;1.27;0.85;;;;;;;;;;5040724;28;20055;-70
2021/12/07 07:36:22;;;;;;;2.13;1.55;;;;;;;;;;5038185;28;20041;-70
2021/12/07 07:38:48;;;;;;;1.65;1.17;;;;;;;;;;5050735;28;20029;-70
2021/12/07 07:41:14;;;;;;;1.25;1.20;;;;;;;;;;5039156;28;20530;-70
2021/12/07 07:43:40;;;;;;;2.22;1.70;;;;;;;;;;5032171;28;20025;-73
2021/12/07 07:46:06;;;;;;;1.08;1.02;;;;;;;;;;5039839;28;20033;-72
2021/12/07 07:48:32;;;;;;;3.13;1.00;;;;;;;;;;5049403;28;20067;-70
2021/12/07 07:50:58;;;;;;;0.47;0.47;;;;;;;;;;5048994;28;20033;-70
2021/12/07 07:53:24;;;;;;;4.47;1.95;;;;;;;;;;5048852;28;20055;-70
2021/12/07 07:55:51;;;;;;;0.20;0.20;;;;;;;;;;5042093;28;20032;-70
2021/12/07 07:58:18;;;;;;;1.63;1.52;;;;;;;;;;5032059;28;20957;-70
2021/12/07 08:00:44;;;;;;;2.55;2.28;;;;;;;;;;5050819;28;20028;-70
2021/12/07 08:03:10;;;;;;;1.73;1.63;;;;;;;;;;5042207;28;20052;-70
2021/12/07 08:05:36;;;;;;;3.60;2.40;;;;;;;;;;5032349;28;20037;-70
2021/12/07 08:08:03;;;;;;;0.55;0.55;;;;;;;;;;5034409;28;20029;-74
2021/12/07 08:10:29;;;;;;;1.50;1.40;;;;;;;;;;5037885;28;20231;-70
2021/12/07 08:13:04;;;;;;;2.47;1.33;;;;;;;;;;5031263;28;20025;-69
2021/12/07 08:15:31;;;;;;;1.88;1.65;;;;;;;;;;5033319;28;20495;-70
2021/12/07 08:17:57;;;;;;;0.75;0.75;;;;;;;;;;5041831;28;20025;-70
2021/12/07 08:20:23;;;;;;;3.70;1.85;;;;;;;;;;5033561;28;20044;-69
2021/12/07 08:22:49;;;;;;;0.47;0.47;;;;;;;;;;5039309;28;20063;-70
2021/12/07 08:25:15;;;;;;;3.75;2.35;;;;;;;;;;5048307;28;20052;-69
2021/12/07 08:27:41;;;;;;;3.05;1.73;;;;;;;;;;5036152;28;20034;-70
2021/12/07 08:30:09;;;;;;;1.52;1.42;;;;;;;;;;5037588;28;20024;-70
2021/12/07 08:32:35;;;;;;;0.73;0.73;;;;;;;;;;5035316;28;20032;-69
2021/12/07 08:35:01;;;;;;;1.20;1.13;;;;;;;;;;5038418;28;20099;-73
2021/12/07 08:37:27;;;;;;;1.38;1.27;;;;;;;;;;5042997;28;20487;-72
2021/12/07 08:39:53;;;;;;;0.10;0.10;;;;;;;;;;5029801;28;20051;-72
2021/12/07 08:42:19;;;;;;;5.95;3.20;;;;;;;;;;5029787;28;20095;-70
2021/12/07 08:44:45;;;;;;;0.50;0.50;;;;;;;;;;5031219;28;20029;-71
2021/12/07 08:47:11;;;;;;;2.05;1.90;;;;;;;;;;5029850;28;20044;-70
2021/12/07 08:49:37;;;;;;;26.20;1.95;;;;;;;;;;5032293;28;20026;-70
2021/12/07 08:52:03;;;;;;;0.65;0.65;;;;;;;;;;5033815;28;20072;-71
2021/12/07 09:00:06;;;;;;;0.55;0.55;;;;;;;;;;5034987;28;20044;-70
2021/12/07 09:02:33;;;;;;;4.10;1.90;;;;;;;;;;5032083;28;20041;-70
2021/12/07 09:05:00;;;;;;;0.45;0.45;;;;;;;;;;5048086;28;20503;-70
2021/12/07 09:07:26;;;;;;;2.50;2.28;;;;;;;;;;5046955;28;20103;-70
2021/12/07 09:09:52;;;;;;;26.60;2.17;;;;;;;;;;5040802;28;20060;-70
2021/12/07 09:12:19;;;;;;;2.35;0.95;;;;;;;;;;5036731;28;20096;-70
2021/12/07 09:14:46;;;;;;;1.33;1.23;;;;;;;;;;5041658;28;20033;-70
2021/12/07 09:17:12;;;;;;;0.15;0.15;;;;;;;;;;5043794;28;20025;-71
2021/12/07 09:19:38;;;;;;;1.77;1.38;;;;;;;;;;5044462;28;20087;-71
2021/12/07 09:22:05;;;;;;;0.57;0.57;;;;;;;;;;5041909;28;20033;-71
2021/12/07 09:24:31;;;;;;;1.38;1.27;;;;;;;;;;5030762;28;20277;-77
2021/12/07 09:26:57;;;;;;;0.90;0.73;;;;;;;;;;5031020;28;20029;-72
2021/12/07 09:29:23;;;;;;;1.77;1.67;;;;;;;;;;5038183;28;20036;-71
2021/12/07 09:31:49;;;;;;;1.17;0.73;;;;;;;;;;5031248;28;20079;-70
2021/12/07 09:34:15;;;;;;;0.63;0.63;;;;;;;;;;5039411;28;20026;-71
2021/12/07 09:36:42;;;;;;;0.65;0.32;;;;;;;;;;5030655;28;20116;-70
2021/12/07 09:39:10;;;;;;;0.85;0.85;;;;;;;;;;5033936;28;20033;-69
2021/12/07 09:41:37;;;;;;;3.97;2.83;;;;;;;;;;5030050;28;20025;-69
2021/12/07 09:44:04;;;;;;;3.28;2.22;;;;;;;;;;5029061;28;20029;-71
2021/12/07 09:46:31;;;;;;;1.85;1.15;;;;;;;;;;5040455;28;20079;-68
2021/12/07 09:48:57;;;;;;;3.60;1.40;;;;;;;;;;5048763;28;20053;-73
2021/12/07 09:51:24;;;;;;;1.77;1.67;;;;;;;;;;5038593;28;20033;-68
2021/12/07 09:53:52;;;;;;;2.60;2.22;;;;;;;;;;5038895;28;20159;-67
2021/12/07 09:56:18;;;;;;;1.10;1.05;;;;;;;;;;5041783;28;20029;-68
2021/12/07 09:58:44;;;;;;;1.65;1.50;;;;;;;;;;5033409;28;20479;-69
2021/12/07 10:01:11;;;;;;;0.73;0.73;;;;;;;;;;5037792;28;20104;-68
2021/12/07 10:03:38;;;;;;;1.55;1.45;;;;;;;;;;5032434;28;20029;-68
2021/12/07 10:06:04;;;;;;;1.90;1.38;;;;;;;;;;5030752;28;20172;-68
2021/12/07 10:08:30;;;;;;;3.05;1.90;;;;;;;;;;5031073;28;20029;-68
2021/12/07 10:10:57;;;;;;;2.20;2.08;;;;;;;;;;5036373;28;20037;-68
2021/12/07 10:13:26;;;;;;;3.30;1.20;;;;;;;;;;5028618;28;20030;-69
2021/12/07 10:15:53;;;;;;;1.65;1.27;;;;;;;;;;5030556;28;20033;-68
2021/12/07 10:18:21;;;;;;;3.97;1.88;;;;;;;;;;5034945;28;20031;-68
2021/12/07 10:20:49;;;;;;;1.92;1.63;;;;;;;;;;5030045;28;20033;-68
2021/12/07 10:23:17;;;;;;;2.95;1.92;;;;;;;;;;5035504;28;20103;-68
2021/12/07 10:25:46;;;;;;;2.70;1.50;;;;;;;;;;5031076;28;20169;-68
2021/12/07 10:28:31;;;;;;;2.13;1.60;;;;;;;;;;5024984;28;20018;-68
2021/12/07 10:31:09;;;;;;;0.75;0.75;;;;;;;;;;5042119;28;20036;-68
2021/12/07 10:33:36;;;;;;;0.60;0.60;;;;;;;;;;5047436;28;20025;-68
2021/12/07 10:36:06;;;;;;;1.40;1.30;;;;;;;;;;5050760;28;20033;-68
2021/12/07 10:38:32;;;;;;;0.80;0.80;;;;;;;;;;5034914;28;20037;-68
2021/12/07 10:41:02;;;;;;;1.25;1.08;;;;;;;;;;5040685;28;20388;-69
2021/12/07 10:43:41;;;;;;;1.02;0.68;;;;;;;;;;5033109;28;20109;-69
2021/12/07 10:46:24;;;;;;;1.42;1.33;;;;;;;;;;5027844;28;20480;-69
2021/12/07 10:48:50;;;;;;;4.30;1.45;;;;;;;;;;5044547;28;20037;-68
2021/12/07 10:51:16;;;;;;;0.75;0.75;;;;;;;;;;5028357;28;20056;-69
2021/12/07 10:53:52;;;;;;;0.35;0.35;;;;;;;;;;5038338;28;20017;-68
2021/12/07 10:56:31;;;;;;;0.75;0.75;;;;;;;;;;5047043;28;20025;-69
2021/12/07 10:58:58;;;;;;;1.08;1.08;;;;;;;;;;5040667;28;20025;-69
2021/12/07 11:01:44;;;;;;;1.25;0.98;;;;;;;;;;5047935;28;20017;-68
2021/12/07 11:04:22;;;;;;;0.35;0.35;;;;;;;;;;5049107;28;20446;-69
2021/12/07 11:07:06;;;;;;;1.70;1.35;;;;;;;;;;5030234;28;20488;-69
2021/12/07 11:09:45;;;;;;;0.35;0.35;;;;;;;;;;5046001;28;20095;-69
2021/12/07 11:12:13;;;;;;;3.50;1.77;;;;;;;;;;5033387;28;20094;-68
2021/12/07 11:14:40;;;;;;;1.42;1.35;;;;;;;;;;5031566;28;20041;-68
2021/12/07 11:17:07;;;;;;;1.15;1.05;;;;;;;;;;5032672;28;20022;-68
2021/12/07 11:19:33;;;;;;;1.10;1.05;;;;;;;;;;5035234;28;20032;-68
2021/12/07 11:22:00;;;;;;;1.08;1.08;;;;;;;;;;5047425;28;20026;-69
2021/12/07 11:24:39;;;;;;;1.38;1.27;;;;;;;;;;5041988;28;20048;-69
2021/12/07 11:30:00;;;;;;;0.50;0.50;;;;;;;;;;5039573;28;20043;-69
2021/12/07 11:32:29;;;;;;;0.47;0.47;;;;;;;;;;5027786;28;20412;-68
2021/12/07 11:35:06;;;;;;;0.98;0.88;;;;;;;;;;5031115;28;20049;-68
2021/12/07 11:37:34;;;;;;;2.78;2.00;;;;;;;;;;5034570;28;20044;-69
2021/12/07 11:40:02;;;;;;;1.00;1.00;;;;;;;;;;5034183;28;20057;-69
2021/12/07 11:42:29;;;;;;;2.72;1.45;;;;;;;;;;5037069;28;20053;-69
2021/12/07 11:44:58;;;;;;;2.22;1.52;;;;;;;;;;5030487;28;20021;-68
2021/12/07 11:47:30;;;;;;;4.43;2.20;;;;;;;;;;5032769;28;20468;-69
2021/12/07 11:49:57;;;;;;;1.90;1.80;;;;;;;;;;5038108;28;20166;-69
2021/12/07 11:52:23;;;;;;;1.45;1.35;;;;;;;;;;5042843;28;20032;-69
2021/12/07 11:54:50;;;;;;;2.17;1.08;;;;;;;;;;5048030;28;20021;-70
2021/12/07 11:57:17;;;;;;;1.20;1.10;;;;;;;;;;5043529;28;20450;-69
2021/12/07 11:59:45;;;;;;;1.70;1.60;;;;;;;;;;5038272;28;20036;-69
2021/12/07 12:02:11;;;;;;;0.52;0.45;;;;;;;;;;5029896;28;20036;-71
2021/12/07 12:04:36;;;;;;;0.57;0.57;;;;;;;;;;5033922;28;20033;-67
2021/12/07 12:07:03;;;;;;;2.13;2.00;;;;;;;;;;5037477;28;20466;-67
2021/12/07 12:09:30;;;;;;;1.92;1.25;;;;;;;;;;5029253;28;20033;-68
2021/12/07 12:12:03;;;;;;;0.70;0.70;;;;;;;;;;5041449;28;20032;-68
2021/12/07 12:14:41;;;;;;;1.60;1.48;;;;;;;;;;5042741;28;20767;-67
2021/12/07 12:17:16;;;;;;;1.48;1.38;;;;;;;;;;5025218;28;20033;-68
2021/12/07 12:20:09;;;;;;;2.00;1.67;;;;;;;;;;5039105;28;20033;-67
2021/12/07 12:22:38;;;;;;;1.13;1.13;;;;;;;;;;5032984;28;20167;-68
2021/12/07 12:25:08;;;;;;;3.10;2.53;;;;;;;;;;5027494;28;20563;-68
2021/12/07 12:27:35;;;;;;;0.50;0.50;;;;;;;;;;5029778;28;20051;-68
2021/12/07 12:30:16;;;;;;;1.77;1.60;;;;;;;;;;5033877;28;20098;-69
2021/12/07 12:32:45;;;;;;;1.95;1.38;;;;;;;;;;5035878;28;20033;-69
2021/12/07 12:35:25;;;;;;;1.27;1.17;;;;;;;;;;5036297;28;20399;-70
2021/12/07 12:37:51;;;;;;;6.72;1.95;;;;;;;;;;5024995;28;20049;-69
2021/12/07 12:40:22;;;;;;;4.13;2.83;;;;;;;;;;5021855;28;20075;-69
2021/12/07 12:42:52;;;;;;;3.97;3.17;;;;;;;;;;5029094;28;20038;-69
2021/12/07 12:45:35;;;;;;;5.32;2.83;;;;;;;;;;5023583;28;20037;-69
2021/12/07 12:48:01;;;;;;;0.95;0.95;;;;;;;;;;5025769;28;20052;-68
2021/12/07 12:50:30;;;;;;;0.75;0.75;;;;;;;;;;5027842;28;20033;-68
2021/12/07 12:52:59;;;;;;;0.63;0.63;;;;;;;;;;5029869;28;20029;-69
2021/12/07 12:55:28;;;;;;;0.85;0.85;;;;;;;;;;5041865;28;20033;-70
2021/12/07 12:57:54;;;;;;;1.05;0.55;;;;;;;;;;5037029;28;20513;-70
2021/12/07 13:00:20;;;;;;;1.55;1.45;;;;;;;;;;5043566;28;20104;-70
2021/12/07 13:02:50;;;;;;;1.55;1.48;;;;;;;;;;5029715;28;20029;-68
2021/12/07 13:05:18;;;;;;;0.77;0.77;;;;;;;;;;5023424;28;20025;-70
2021/12/07 13:07:45;;;;;;;1.27;1.17;;;;;;;;;;5025675;28;20033;-70
2021/12/07 13:10:15;;;;;;;1.25;1.23;;;;;;;;;;5028943;28;20503;-69
2021/12/07 13:12:41;;;;;;;4.03;2.83;;;;;;;;;;5032853;28;20028;-70
2021/12/07 13:15:20;;;;;;;0.82;0.82;;;;;;;;;;5021022;28;20040;-69
2021/12/07 13:17:48;;;;;;;3.42;1.83;;;;;;;;;;5020860;28;20021;-69
2021/12/07 13:20:23;;;;;;;1.75;1.65;;;;;;;;;;5018833;28;20108;-69
2021/12/07 13:22:49;;;;;;;5.60;2.88;;;;;;;;;;5034064;28;20095;-69
2021/12/07 13:25:29;;;;;;;1.63;1.52;;;;;;;;;;5033847;28;20509;-69
2021/12/07 13:28:02;;;;;;;1.50;1.17;;;;;;;;;;5023584;28;20053;-70
2021/12/07 13:30:50;;;;;;;3.55;1.90;;;;;;;;;;5035576;28;20018;-70
2021/12/07 13:33:15;;;;;;;1.95;1.73;;;;;;;;;;5037433;28;20087;-69
2021/12/07 13:35:41;;;;;;;1.48;1.42;;;;;;;;;;5024318;28;20439;-70
2021/12/07 13:38:17;;;;;;;2.65;1.85;;;;;;;;;;5040275;28;20074;-69
2021/12/07 13:40:43;;;;;;;0.95;0.95;;;;;;;;;;5033045;28;20024;-69
2021/12/07 13:43:09;;;;;;;2.33;1.75;;;;;;;;;;5026100;28;20439;-69
2021/12/07 13:45:35;;;;;;;4.63;1.83;;;;;;;;;;5028921;28;20022;-69
2021/12/07 13:48:03;;;;;;;2.15;1.52;;;;;;;;;;5023649;28;20052;-69
2021/12/07 13:50:30;;;;;;;3.35;2.90;;;;;;;;;;5024905;28;20720;-69
2021/12/07 13:52:56;;;;;;;3.15;2.50;;;;;;;;;;5023211;28;20021;-69
2021/12/07 13:55:25;;;;;;;5.25;1.20;;;;;;;;;;5032670;28;20593;-69
2021/12/07 13:57:52;;;;;;;1.70;1.55;;;;;;;;;;5023712;28;20037;-70
2021/12/07 14:00:20;;;;;;;0.55;0.55;;;;;;;;;;5048005;28;20360;-70
2021/12/07 14:02:49;;;;;;;1.05;1.05;;;;;;;;;;5040622;28;20183;-72
2021/12/07 14:05:20;;;;;;;2.03;1.75;;;;;;;;;;5023481;28;20112;-69
2021/12/07 14:07:47;;;;;;;0.40;0.40;;;;;;;;;;5031151;28;20392;-70
2021/12/07 14:10:16;;;;;;;2.08;1.88;;;;;;;;;;5031186;28;20028;-70
2021/12/07 14:12:43;;;;;;;2.30;1.40;;;;;;;;;;5028163;28;20032;-69
2021/12/07 14:15:14;;;;;;;0.55;0.55;;;;;;;;;;5025610;28;20029;-69
2021/12/07 14:17:41;;;;;;;3.13;2.55;;;;;;;;;;5024381;28;20521;-70
2021/12/07 14:20:07;;;;;;;1.35;1.27;;;;;;;;;;5036585;28;20032;-70
2021/12/07 14:22:33;;;;;;;2.30;1.92;;;;;;;;;;5020993;28;20053;-69
2021/12/07 14:24:59;;;;;;;2.63;2.15;;;;;;;;;;5020565;28;20381;-71
2021/12/07 14:27:26;;;;;;;3.60;1.10;;;;;;;;;;5025247;28;20017;-70
2021/12/07 14:29:53;;;;;;;1.05;1.05;;;;;;;;;;5033476;28;20483;-70
2021/12/07 14:32:19;;;;;;;3.20;1.52;;;;;;;;;;5020971;28;20018;-70
2021/12/07 14:34:45;;;;;;;1.77;1.67;;;;;;;;;;5033514;28;20031;-70
2021/12/07 14:37:11;;;;;;;5.05;1.35;;;;;;;;;;5029703;28;20020;-71
2021/12/07 14:39:39;;;;;;;0.90;0.90;;;;;;;;;;5025804;28;20026;-71
2021/12/07 14:42:15;;;;;;;6.55;1.48;;;;;;;;;;5035428;28;20025;-74
2021/12/07 14:44:43;;;;;;;4.63;1.73;;;;;;;;;;5037998;28;20037;-72
2021/12/07 14:47:09;;;;;;;3.83;3.08;;;;;;;;;;5033917;28;20041;-72
2021/12/07 14:49:37;;;;;;;0.28;0.28;;;;;;;;;;5036994;28;20391;-72
2021/12/07 14:52:08;;;;;;;0.95;0.95;;;;;;;;;;5042296;28;20600;-72
2021/12/07 14:54:34;;;;;;;0.85;0.85;;;;;;;;;;5028524;28;20476;-71
2021/12/07 14:57:00;;;;;;;1.40;1.35;;;;;;;;;;5029029;28;20117;-70
2021/12/07 14:59:26;;;;;;;1.50;1.35;;;;;;;;;;5035346;28;20037;-70
2021/12/07 15:01:53;;;;;;;2.17;0.70;;;;;;;;;;5024426;28;20034;-69
2021/12/07 15:04:19;;;;;;;1.17;1.13;;;;;;;;;;5023327;28;20013;-70
2021/12/07 15:06:48;;;;;;;1.48;1.40;;;;;;;;;;5034127;28;20640;-70
2021/12/07 15:09:14;;;;;;;1.60;1.50;;;;;;;;;;5040741;28;20117;-70
2021/12/07 15:11:42;;;;;;;3.33;2.47;;;;;;;;;;5040294;28;20399;-70
2021/12/07 15:14:09;;;;;;;0.45;0.45;;;;;;;;;;5027292;28;20056;-70
2021/12/07 15:16:36;;;;;;;2.55;1.52;;;;;;;;;;5028029;28;20492;-70
2021/12/07 15:19:11;;;;;;;1.08;1.00;;;;;;;;;;5030773;28;20025;-68
2021/12/07 15:21:38;;;;;;;1.40;0.93;;;;;;;;;;5030331;28;20025;-69
2021/12/07 15:24:09;;;;;;;2.63;2.40;;;;;;;;;;5041620;28;20045;-68
2021/12/07 15:26:35;;;;;;;20.13;2.35;;;;;;;;;;5038556;28;20472;-68
2021/12/07 15:29:07;;;;;;;3.55;2.50;;;;;;;;;;5031156;28;20021;-68
2021/12/07 15:31:35;;;;;;;0.75;0.75;;;;;;;;;;5029240;28;20394;-70
2021/12/07 15:34:01;;;;;;;0.82;0.82;;;;;;;;;;5040672;28;20490;-69
2021/12/07 15:36:50;;;;;;;1.00;1.00;;;;;;;;;;5033129;28;20526;-73
2021/12/07 15:39:23;;;;;;;1.10;1.10;;;;;;;;;;5033877;28;20468;-74
2021/12/07 15:42:35;;;;;;;1.40;1.30;;;;;;;;;;5030740;28;20031;-72
2021/12/07 15:44:43;;;;;;;1.23;1.15;;;;;;;;;;5027182;28;20037;-73
2021/12/07 15:47:20;;;;;;;1.88;1.58;;;;;;;;;;5031161;28;20051;-72
2021/12/07 15:49:58;;;;;;;3.08;2.47;;;;;;;;;;5033576;28;20124;-72
2021/12/07 15:52:41;;;;;;;0.35;0.35;;;;;;;;;;5028603;28;20029;-72
2021/12/07 15:55:17;;;;;;;0.70;0.70;;;;;;;;;;5033075;28;20036;-73
2021/12/07 15:57:51;;;;;;;1.65;1.55;;;;;;;;;;5037887;28;20036;-73
2021/12/07 16:00:22;;;;;;;4.75;0.70;;;;;;;;;;5035751;28;20078;-74
2021/12/07 16:02:58;;;;;;;9.38;1.90;;;;;;;;;;5037026;28;20123;-73
2021/12/07 16:05:25;;;;;;;0.70;0.70;;;;;;;;;;5031239;28;20383;-73
2021/12/07 16:07:51;;;;;;;1.90;1.80;;;;;;;;;;5030592;28;20405;-73
2021/12/07 16:10:23;;;;;;;1.98;1.52;;;;;;;;;;5029307;28;20033;-73
2021/12/07 16:13:11;;;;;;;0.20;0.20;;;;;;;;;;5030900;28;20087;-72
2021/12/07 16:15:37;;;;;;;2.92;1.23;;;;;;;;;;5031941;28;20120;-71
2021/12/07 16:18:03;;;;;;;0.70;0.70;;;;;;;;;;5031380;28;20033;-72
2021/12/07 16:20:35;;;;;;;4.45;1.63;;;;;;;;;;5026954;28;20037;-72
2021/12/07 16:23:05;;;;;;;1.48;1.00;;;;;;;;;;5025462;28;20061;-74
2021/12/07 16:25:31;;;;;;;2.97;2.30;;;;;;;;;;5026885;28;20139;-71
2021/12/07 16:27:57;;;;;;;1.30;1.25;;;;;;;;;;5033675;28;20075;-73